sensor_id;sensor_type;location;lat;lon;timestamp;P1;durP1;ratioP1;P2;durP2;ratioP2
64854;SDS011;51321;50.428;8.378;2023-04-19T00:02:12;7.80;;;6.32;;
64854;SDS011;51321;50.428;8.378;2023-04-19T00:04:54;9.48;;;6.72;;
64854;SDS011;51321;50.428;8.378;2023-04-19T00:07:35;8.85;;;7.30;;
64854;SDS011;51321;50.428;8.378;2023-04-19T00:10:19;10.05;;;7.15;;
64854;SDS011;51321;50.428;8.378;2023-04-19T00:13:01;8.73;;;6.82;;
64854;SDS011;51321;50.428;8.378;2023-04-19T00:15:45;9.23;;;7.22;;
64854;SDS011;51321;50.428;8.378;2023-04-19T00:18:29;12.85;;;7.90;;
64854;SDS011;51321;50.428;8.378;2023-04-19T00:21:10;8.23;;;7.03;;
64854;SDS011;51321;50.428;8.378;2023-04-19T00:23:51;9.55;;;8.27;;
64854;SDS011;51321;50.428;8.378;2023-04-19T00:26:32;8.68;;;7.65;;
64854;SDS011;51321;50.428;8.378;2023-04-19T00:29:16;9.27;;;8.05;;
64854;SDS011;51321;50.428;8.378;2023-04-19T00:31:56;9.75;;;7.97;;
64854;SDS011;51321;50.428;8.378;2023-04-19T00:34:37;9.10;;;7.47;;
64854;SDS011;51321;50.428;8.378;2023-04-19T00:37:18;10.63;;;7.68;;
64854;SDS011;51321;50.428;8.378;2023-04-19T00:39:59;9.32;;;8.18;;
64854;SDS011;51321;50.428;8.378;2023-04-19T00:42:40;9.88;;;8.18;;
64854;SDS011;51321;50.428;8.378;2023-04-19T00:45:23;10.48;;;8.35;;
64854;SDS011;51321;50.428;8.378;2023-04-19T00:48:05;10.27;;;8.07;;
64854;SDS011;51321;50.428;8.378;2023-04-19T00:50:46;9.52;;;8.50;;
64854;SDS011;51321;50.428;8.378;2023-04-19T00:53:27;11.93;;;9.25;;
64854;SDS011;51321;50.428;8.378;2023-04-19T00:56:08;11.82;;;8.90;;
64854;SDS011;51321;50.428;8.378;2023-04-19T00:58:52;10.25;;;8.43;;
64854;SDS011;51321;50.428;8.378;2023-04-19T01:01:34;10.98;;;8.70;;
64854;SDS011;51321;50.428;8.378;2023-04-19T01:04:16;11.15;;;9.10;;
64854;SDS011;51321;50.428;8.378;2023-04-19T01:07:00;12.38;;;8.82;;
64854;SDS011;51321;50.428;8.378;2023-04-19T01:09:43;13.15;;;9.60;;
64854;SDS011;51321;50.428;8.378;2023-04-19T01:12:25;10.32;;;8.77;;
64854;SDS011;51321;50.428;8.378;2023-04-19T01:15:06;9.48;;;8.25;;
64854;SDS011;51321;50.428;8.378;2023-04-19T01:17:49;11.88;;;9.65;;
64854;SDS011;51321;50.428;8.378;2023-04-19T01:20:30;10.50;;;9.40;;
64854;SDS011;51321;50.428;8.378;2023-04-19T01:23:12;13.68;;;10.25;;
64854;SDS011;51321;50.428;8.378;2023-04-19T01:25:53;11.93;;;9.85;;
64854;SDS011;51321;50.428;8.378;2023-04-19T01:28:33;11.77;;;9.82;;
64854;SDS011;51321;50.428;8.378;2023-04-19T01:31:17;12.35;;;10.10;;
64854;SDS011;51321;50.428;8.378;2023-04-19T01:33:58;11.50;;;9.40;;
64854;SDS011;51321;50.428;8.378;2023-04-19T01:36:39;10.85;;;9.38;;
64854;SDS011;51321;50.428;8.378;2023-04-19T01:39:21;10.93;;;9.35;;
64854;SDS011;51321;50.428;8.378;2023-04-19T01:42:07;11.63;;;10.13;;
64854;SDS011;51321;50.428;8.378;2023-04-19T01:44:49;12.15;;;9.45;;
64854;SDS011;51321;50.428;8.378;2023-04-19T01:47:32;12.52;;;9.32;;
64854;SDS011;51321;50.428;8.378;2023-04-19T01:50:15;13.10;;;10.13;;
64854;SDS011;51321;50.428;8.378;2023-04-19T01:55:41;11.85;;;9.25;;
64854;SDS011;51321;50.428;8.378;2023-04-19T01:58:21;12.30;;;9.88;;
64854;SDS011;51321;50.428;8.378;2023-04-19T02:01:03;12.68;;;10.55;;
64854;SDS011;51321;50.428;8.378;2023-04-19T02:03:44;12.32;;;10.60;;
64854;SDS011;51321;50.428;8.378;2023-04-19T02:06:25;11.45;;;9.77;;
64854;SDS011;51321;50.428;8.378;2023-04-19T02:09:06;12.73;;;10.48;;
64854;SDS011;51321;50.428;8.378;2023-04-19T02:11:48;12.93;;;10.60;;
64854;SDS011;51321;50.428;8.378;2023-04-19T02:14:33;13.70;;;10.25;;
64854;SDS011;51321;50.428;8.378;2023-04-19T02:17:16;12.68;;;10.07;;
64854;SDS011;51321;50.428;8.378;2023-04-19T02:19:57;11.57;;;9.40;;
64854;SDS011;51321;50.428;8.378;2023-04-19T02:22:39;9.80;;;8.80;;
64854;SDS011;51321;50.428;8.378;2023-04-19T02:25:22;10.88;;;9.27;;
64854;SDS011;51321;50.428;8.378;2023-04-19T02:28:06;12.63;;;8.95;;
64854;SDS011;51321;50.428;8.378;2023-04-19T02:30:47;10.35;;;8.73;;
64854;SDS011;51321;50.428;8.378;2023-04-19T02:33:28;12.77;;;9.23;;
64854;SDS011;51321;50.428;8.378;2023-04-19T02:36:08;10.45;;;8.65;;
64854;SDS011;51321;50.428;8.378;2023-04-19T02:38:52;10.65;;;8.52;;
64854;SDS011;51321;50.428;8.378;2023-04-19T02:41:33;13.95;;;9.43;;
64854;SDS011;51321;50.428;8.378;2023-04-19T02:44:15;12.73;;;8.95;;
64854;SDS011;51321;50.428;8.378;2023-04-19T02:46:57;10.20;;;9.07;;
64854;SDS011;51321;50.428;8.378;2023-04-19T02:49:39;10.98;;;9.23;;
64854;SDS011;51321;50.428;8.378;2023-04-19T02:52:24;12.65;;;9.90;;
64854;SDS011;51321;50.428;8.378;2023-04-19T02:57:46;13.63;;;10.40;;
64854;SDS011;51321;50.428;8.378;2023-04-19T03:00:29;11.00;;;9.80;;
64854;SDS011;51321;50.428;8.378;2023-04-19T03:03:17;11.27;;;9.70;;
64854;SDS011;51321;50.428;8.378;2023-04-19T03:05:58;12.32;;;10.35;;
64854;SDS011;51321;50.428;8.378;2023-04-19T03:08:42;14.50;;;10.48;;
64854;SDS011;51321;50.428;8.378;2023-04-19T03:11:23;12.15;;;9.95;;
64854;SDS011;51321;50.428;8.378;2023-04-19T03:14:05;11.68;;;10.48;;
64854;SDS011;51321;50.428;8.378;2023-04-19T03:16:48;12.07;;;10.43;;
64854;SDS011;51321;50.428;8.378;2023-04-19T03:19:29;15.82;;;10.23;;
64854;SDS011;51321;50.428;8.378;2023-04-19T03:22:10;13.93;;;10.35;;
64854;SDS011;51321;50.428;8.378;2023-04-19T03:24:52;13.52;;;10.50;;
64854;SDS011;51321;50.428;8.378;2023-04-19T03:27:35;12.55;;;10.75;;
64854;SDS011;51321;50.428;8.378;2023-04-19T03:30:20;11.93;;;9.80;;
64854;SDS011;51321;50.428;8.378;2023-04-19T03:33:02;11.57;;;9.40;;
64854;SDS011;51321;50.428;8.378;2023-04-19T03:35:43;12.02;;;10.80;;
64854;SDS011;51321;50.428;8.378;2023-04-19T03:38:24;12.48;;;10.65;;
64854;SDS011;51321;50.428;8.378;2023-04-19T03:41:16;10.63;;;9.52;;
64854;SDS011;51321;50.428;8.378;2023-04-19T03:43:58;13.43;;;11.05;;
64854;SDS011;51321;50.428;8.378;2023-04-19T03:46:39;16.02;;;11.85;;
64854;SDS011;51321;50.428;8.378;2023-04-19T03:49:22;12.73;;;10.40;;
64854;SDS011;51321;50.428;8.378;2023-04-19T03:52:13;11.80;;;10.38;;
64854;SDS011;51321;50.428;8.378;2023-04-19T03:54:54;12.90;;;10.60;;
64854;SDS011;51321;50.428;8.378;2023-04-19T03:57:49;14.02;;;11.15;;
64854;SDS011;51321;50.428;8.378;2023-04-19T04:00:36;11.75;;;10.32;;
64854;SDS011;51321;50.428;8.378;2023-04-19T04:03:19;12.88;;;10.43;;
64854;SDS011;51321;50.428;8.378;2023-04-19T04:06:05;12.25;;;10.57;;
64854;SDS011;51321;50.428;8.378;2023-04-19T04:08:45;14.52;;;10.90;;
64854;SDS011;51321;50.428;8.378;2023-04-19T04:11:28;12.52;;;11.00;;
64854;SDS011;51321;50.428;8.378;2023-04-19T04:14:09;13.27;;;11.20;;
64854;SDS011;51321;50.428;8.378;2023-04-19T04:16:51;14.50;;;10.98;;
64854;SDS011;51321;50.428;8.378;2023-04-19T04:19:36;15.07;;;11.65;;
64854;SDS011;51321;50.428;8.378;2023-04-19T04:22:19;14.45;;;10.85;;
64854;SDS011;51321;50.428;8.378;2023-04-19T04:24:59;17.55;;;10.38;;
64854;SDS011;51321;50.428;8.378;2023-04-19T04:27:49;14.10;;;10.57;;
64854;SDS011;51321;50.428;8.378;2023-04-19T04:30:34;14.52;;;11.05;;
64854;SDS011;51321;50.428;8.378;2023-04-19T04:33:16;14.77;;;10.40;;
64854;SDS011;51321;50.428;8.378;2023-04-19T04:35:57;12.20;;;10.57;;
64854;SDS011;51321;50.428;8.378;2023-04-19T04:38:44;18.40;;;11.57;;
64854;SDS011;51321;50.428;8.378;2023-04-19T04:41:25;17.07;;;12.63;;
64854;SDS011;51321;50.428;8.378;2023-04-19T04:44:09;11.57;;;9.95;;
64854;SDS011;51321;50.428;8.378;2023-04-19T04:46:51;13.13;;;10.55;;
64854;SDS011;51321;50.428;8.378;2023-04-19T04:49:37;13.00;;;11.15;;
64854;SDS011;51321;50.428;8.378;2023-04-19T04:52:18;14.00;;;11.20;;
64854;SDS011;51321;50.428;8.378;2023-04-19T04:55:26;14.05;;;10.23;;
64854;SDS011;51321;50.428;8.378;2023-04-19T04:58:07;11.88;;;10.68;;
64854;SDS011;51321;50.428;8.378;2023-04-19T05:01:26;11.35;;;9.52;;
64854;SDS011;51321;50.428;8.378;2023-04-19T05:04:08;12.82;;;10.88;;
64854;SDS011;51321;50.428;8.378;2023-04-19T05:06:54;13.07;;;9.52;;
64854;SDS011;51321;50.428;8.378;2023-04-19T05:09:39;13.25;;;9.85;;
64854;SDS011;51321;50.428;8.378;2023-04-19T05:12:21;11.45;;;8.45;;
64854;SDS011;51321;50.428;8.378;2023-04-19T05:15:02;9.85;;;8.77;;
64854;SDS011;51321;50.428;8.378;2023-04-19T05:17:44;9.82;;;8.05;;
64854;SDS011;51321;50.428;8.378;2023-04-19T05:20:28;10.18;;;8.15;;
64854;SDS011;51321;50.428;8.378;2023-04-19T05:23:22;11.10;;;7.97;;
64854;SDS011;51321;50.428;8.378;2023-04-19T05:26:04;11.60;;;7.55;;
64854;SDS011;51321;50.428;8.378;2023-04-19T05:28:52;17.38;;;8.15;;
64854;SDS011;51321;50.428;8.378;2023-04-19T05:31:46;9.40;;;6.80;;
64854;SDS011;51321;50.428;8.378;2023-04-19T05:34:46;8.77;;;6.78;;
64854;SDS011;51321;50.428;8.378;2023-04-19T05:37:28;7.90;;;6.32;;
64854;SDS011;51321;50.428;8.378;2023-04-19T05:40:11;8.95;;;7.35;;
64854;SDS011;51321;50.428;8.378;2023-04-19T05:42:51;8.30;;;6.47;;
64854;SDS011;51321;50.428;8.378;2023-04-19T05:45:35;7.83;;;5.97;;
64854;SDS011;51321;50.428;8.378;2023-04-19T05:48:16;7.20;;;6.15;;
64854;SDS011;51321;50.428;8.378;2023-04-19T05:50:57;10.88;;;6.63;;
64854;SDS011;51321;50.428;8.378;2023-04-19T05:53:49;7.67;;;6.43;;
64854;SDS011;51321;50.428;8.378;2023-04-19T05:56:30;7.28;;;5.95;;
64854;SDS011;51321;50.428;8.378;2023-04-19T05:59:11;7.70;;;5.78;;
64854;SDS011;51321;50.428;8.378;2023-04-19T06:01:54;8.13;;;5.85;;
64854;SDS011;51321;50.428;8.378;2023-04-19T06:04:35;6.30;;;5.68;;
64854;SDS011;51321;50.428;8.378;2023-04-19T06:07:15;7.90;;;5.72;;
64854;SDS011;51321;50.428;8.378;2023-04-19T06:09:57;5.90;;;5.03;;
64854;SDS011;51321;50.428;8.378;2023-04-19T06:12:38;7.03;;;5.32;;
64854;SDS011;51321;50.428;8.378;2023-04-19T06:15:19;6.47;;;5.03;;
64854;SDS011;51321;50.428;8.378;2023-04-19T06:18:02;6.65;;;5.05;;
64854;SDS011;51321;50.428;8.378;2023-04-19T06:20:44;7.07;;;4.97;;
64854;SDS011;51321;50.428;8.378;2023-04-19T06:23:27;6.60;;;5.03;;
64854;SDS011;51321;50.428;8.378;2023-04-19T06:26:10;7.38;;;4.60;;
64854;SDS011;51321;50.428;8.378;2023-04-19T06:28:53;6.47;;;5.28;;
64854;SDS011;51321;50.428;8.378;2023-04-19T06:31:36;6.40;;;4.38;;
64854;SDS011;51321;50.428;8.378;2023-04-19T06:34:20;5.93;;;4.65;;
64854;SDS011;51321;50.428;8.378;2023-04-19T06:37:06;5.32;;;4.20;;
64854;SDS011;51321;50.428;8.378;2023-04-19T06:39:47;8.75;;;5.10;;
64854;SDS011;51321;50.428;8.378;2023-04-19T06:42:33;7.43;;;5.22;;
64854;SDS011;51321;50.428;8.378;2023-04-19T06:45:14;5.22;;;4.35;;
64854;SDS011;51321;50.428;8.378;2023-04-19T06:47:55;4.85;;;4.25;;
64854;SDS011;51321;50.428;8.378;2023-04-19T06:50:37;6.10;;;4.10;;
64854;SDS011;51321;50.428;8.378;2023-04-19T06:53:17;5.20;;;3.93;;
64854;SDS011;51321;50.428;8.378;2023-04-19T06:55:58;6.28;;;4.00;;
64854;SDS011;51321;50.428;8.378;2023-04-19T06:58:40;4.70;;;3.28;;
64854;SDS011;51321;50.428;8.378;2023-04-19T07:01:21;5.35;;;3.60;;
64854;SDS011;51321;50.428;8.378;2023-04-19T07:04:03;3.53;;;2.95;;
64854;SDS011;51321;50.428;8.378;2023-04-19T07:06:49;4.07;;;3.38;;
64854;SDS011;51321;50.428;8.378;2023-04-19T07:09:30;3.50;;;2.83;;
64854;SDS011;51321;50.428;8.378;2023-04-19T07:12:10;4.72;;;3.50;;
64854;SDS011;51321;50.428;8.378;2023-04-19T07:14:51;5.75;;;3.13;;
64854;SDS011;51321;50.428;8.378;2023-04-19T07:17:34;6.35;;;3.08;;
64854;SDS011;51321;50.428;8.378;2023-04-19T07:20:15;3.55;;;3.00;;
64854;SDS011;51321;50.428;8.378;2023-04-19T07:22:57;3.78;;;3.35;;
64854;SDS011;51321;50.428;8.378;2023-04-19T07:28:19;5.38;;;2.83;;
64854;SDS011;51321;50.428;8.378;2023-04-19T07:31:00;3.58;;;2.72;;
64854;SDS011;51321;50.428;8.378;2023-04-19T07:33:41;4.18;;;2.92;;
64854;SDS011;51321;50.428;8.378;2023-04-19T07:36:23;4.23;;;2.90;;
64854;SDS011;51321;50.428;8.378;2023-04-19T07:39:09;4.57;;;3.13;;
64854;SDS011;51321;50.428;8.378;2023-04-19T07:41:51;4.85;;;3.85;;
64854;SDS011;51321;50.428;8.378;2023-04-19T07:44:34;4.18;;;3.22;;
64854;SDS011;51321;50.428;8.378;2023-04-19T07:47:15;4.38;;;3.03;;
64854;SDS011;51321;50.428;8.378;2023-04-19T07:49:56;3.33;;;2.90;;
64854;SDS011;51321;50.428;8.378;2023-04-19T07:52:37;3.58;;;2.88;;
64854;SDS011;51321;50.428;8.378;2023-04-19T07:58:02;4.15;;;3.30;;
64854;SDS011;51321;50.428;8.378;2023-04-19T08:00:43;3.67;;;2.88;;
64854;SDS011;51321;50.428;8.378;2023-04-19T08:03:25;5.22;;;2.97;;
64854;SDS011;51321;50.428;8.378;2023-04-19T08:06:07;5.05;;;3.25;;
64854;SDS011;51321;50.428;8.378;2023-04-19T08:08:48;4.72;;;3.15;;
64854;SDS011;51321;50.428;8.378;2023-04-19T08:11:30;4.30;;;2.80;;
64854;SDS011;51321;50.428;8.378;2023-04-19T08:14:11;6.72;;;3.63;;
64854;SDS011;51321;50.428;8.378;2023-04-19T08:16:51;5.63;;;3.05;;
64854;SDS011;51321;50.428;8.378;2023-04-19T08:19:32;5.00;;;3.00;;
64854;SDS011;51321;50.428;8.378;2023-04-19T08:22:13;4.22;;;3.33;;
64854;SDS011;51321;50.428;8.378;2023-04-19T08:24:54;3.85;;;2.97;;
64854;SDS011;51321;50.428;8.378;2023-04-19T08:27:35;5.53;;;3.10;;
64854;SDS011;51321;50.428;8.378;2023-04-19T08:30:16;4.57;;;3.40;;
64854;SDS011;51321;50.428;8.378;2023-04-19T08:33:00;4.65;;;2.83;;
64854;SDS011;51321;50.428;8.378;2023-04-19T08:35:41;5.10;;;3.00;;
64854;SDS011;51321;50.428;8.378;2023-04-19T08:38:23;4.32;;;3.25;;
64854;SDS011;51321;50.428;8.378;2023-04-19T08:41:04;5.13;;;3.20;;
64854;SDS011;51321;50.428;8.378;2023-04-19T08:43:49;4.22;;;3.22;;
64854;SDS011;51321;50.428;8.378;2023-04-19T08:46:40;4.63;;;2.95;;
64854;SDS011;51321;50.428;8.378;2023-04-19T08:49:22;4.18;;;3.38;;
64854;SDS011;51321;50.428;8.378;2023-04-19T08:52:03;4.82;;;3.28;;
64854;SDS011;51321;50.428;8.378;2023-04-19T08:54:46;4.18;;;3.30;;
64854;SDS011;51321;50.428;8.378;2023-04-19T08:57:29;4.77;;;3.30;;
64854;SDS011;51321;50.428;8.378;2023-04-19T09:00:12;5.22;;;3.55;;
64854;SDS011;51321;50.428;8.378;2023-04-19T09:02:54;4.07;;;3.38;;
64854;SDS011;51321;50.428;8.378;2023-04-19T09:05:36;4.30;;;3.15;;
64854;SDS011;51321;50.428;8.378;2023-04-19T09:08:23;4.75;;;3.50;;
64854;SDS011;51321;50.428;8.378;2023-04-19T09:11:05;4.28;;;3.63;;
64854;SDS011;51321;50.428;8.378;2023-04-19T09:13:46;5.35;;;3.75;;
64854;SDS011;51321;50.428;8.378;2023-04-19T09:16:28;9.45;;;4.43;;
64854;SDS011;51321;50.428;8.378;2023-04-19T09:19:09;4.15;;;3.53;;
64854;SDS011;51321;50.428;8.378;2023-04-19T09:21:51;4.75;;;3.42;;
64854;SDS011;51321;50.428;8.378;2023-04-19T09:24:38;4.18;;;3.40;;
64854;SDS011;51321;50.428;8.378;2023-04-19T09:27:25;4.07;;;3.35;;
64854;SDS011;51321;50.428;8.378;2023-04-19T09:30:10;6.05;;;3.72;;
64854;SDS011;51321;50.428;8.378;2023-04-19T09:32:53;6.40;;;3.83;;
64854;SDS011;51321;50.428;8.378;2023-04-19T09:35:40;6.95;;;3.95;;
64854;SDS011;51321;50.428;8.378;2023-04-19T09:38:22;5.75;;;4.03;;
64854;SDS011;51321;50.428;8.378;2023-04-19T09:41:06;8.85;;;4.13;;
64854;SDS011;51321;50.428;8.378;2023-04-19T09:43:49;4.47;;;3.80;;
64854;SDS011;51321;50.428;8.378;2023-04-19T09:46:31;4.38;;;3.17;;
64854;SDS011;51321;50.428;8.378;2023-04-19T09:49:15;5.32;;;3.53;;
64854;SDS011;51321;50.428;8.378;2023-04-19T09:52:02;4.68;;;3.85;;
64854;SDS011;51321;50.428;8.378;2023-04-19T09:54:44;9.40;;;4.57;;
64854;SDS011;51321;50.428;8.378;2023-04-19T09:57:26;8.05;;;3.88;;
64854;SDS011;51321;50.428;8.378;2023-04-19T10:00:07;4.25;;;3.53;;
64854;SDS011;51321;50.428;8.378;2023-04-19T10:02:52;6.43;;;3.28;;
64854;SDS011;51321;50.428;8.378;2023-04-19T10:05:38;4.22;;;3.83;;
64854;SDS011;51321;50.428;8.378;2023-04-19T10:08:20;6.18;;;3.85;;
64854;SDS011;51321;50.428;8.378;2023-04-19T10:11:01;4.43;;;3.75;;
64854;SDS011;51321;50.428;8.378;2023-04-19T10:13:41;7.95;;;3.55;;
64854;SDS011;51321;50.428;8.378;2023-04-19T10:16:24;4.80;;;3.63;;
64854;SDS011;51321;50.428;8.378;2023-04-19T10:19:06;5.50;;;3.42;;
64854;SDS011;51321;50.428;8.378;2023-04-19T10:21:51;5.18;;;3.67;;
64854;SDS011;51321;50.428;8.378;2023-04-19T10:24:33;4.72;;;3.20;;
64854;SDS011;51321;50.428;8.378;2023-04-19T10:27:13;4.45;;;3.20;;
64854;SDS011;51321;50.428;8.378;2023-04-19T10:29:55;4.85;;;3.38;;
64854;SDS011;51321;50.428;8.378;2023-04-19T10:32:38;7.20;;;4.65;;
64854;SDS011;51321;50.428;8.378;2023-04-19T10:35:22;5.82;;;3.58;;
64854;SDS011;51321;50.428;8.378;2023-04-19T10:38:09;3.83;;;2.95;;
64854;SDS011;51321;50.428;8.378;2023-04-19T10:40:54;5.38;;;3.38;;
64854;SDS011;51321;50.428;8.378;2023-04-19T10:43:43;6.65;;;3.03;;
64854;SDS011;51321;50.428;8.378;2023-04-19T10:46:36;4.63;;;3.20;;
64854;SDS011;51321;50.428;8.378;2023-04-19T10:49:19;3.60;;;2.83;;
64854;SDS011;51321;50.428;8.378;2023-04-19T10:52:07;11.85;;;3.30;;
64854;SDS011;51321;50.428;8.378;2023-04-19T10:58:00;5.85;;;3.45;;
64854;SDS011;51321;50.428;8.378;2023-04-19T11:00:42;5.03;;;2.83;;
64854;SDS011;51321;50.428;8.378;2023-04-19T11:03:50;3.90;;;2.60;;
64854;SDS011;51321;50.428;8.378;2023-04-19T11:06:31;5.10;;;3.40;;
64854;SDS011;51321;50.428;8.378;2023-04-19T11:09:20;3.77;;;2.67;;
64854;SDS011;51321;50.428;8.378;2023-04-19T11:12:04;3.97;;;2.50;;
64854;SDS011;51321;50.428;8.378;2023-04-19T11:14:50;5.57;;;2.75;;
64854;SDS011;51321;50.428;8.378;2023-04-19T11:17:31;3.20;;;2.47;;
64854;SDS011;51321;50.428;8.378;2023-04-19T11:22:55;4.57;;;2.55;;
64854;SDS011;51321;50.428;8.378;2023-04-19T11:25:41;3.83;;;2.33;;
64854;SDS011;51321;50.428;8.378;2023-04-19T11:28:27;5.80;;;2.20;;
64854;SDS011;51321;50.428;8.378;2023-04-19T11:31:11;6.20;;;1.90;;
64854;SDS011;51321;50.428;8.378;2023-04-19T11:33:52;5.50;;;2.10;;
64854;SDS011;51321;50.428;8.378;2023-04-19T11:36:33;3.45;;;1.42;;
64854;SDS011;51321;50.428;8.378;2023-04-19T11:39:26;3.25;;;1.90;;
64854;SDS011;51321;50.428;8.378;2023-04-19T11:42:15;2.88;;;1.75;;
64854;SDS011;51321;50.428;8.378;2023-04-19T11:44:58;2.35;;;1.50;;
64854;SDS011;51321;50.428;8.378;2023-04-19T11:47:48;4.93;;;1.48;;
64854;SDS011;51321;50.428;8.378;2023-04-19T11:50:29;1.27;;;0.90;;
64854;SDS011;51321;50.428;8.378;2023-04-19T11:53:12;2.78;;;1.65;;
64854;SDS011;51321;50.428;8.378;2023-04-19T11:55:57;2.08;;;1.27;;
64854;SDS011;51321;50.428;8.378;2023-04-19T11:58:44;2.78;;;1.30;;
64854;SDS011;51321;50.428;8.378;2023-04-19T12:01:28;3.58;;;1.27;;
64854;SDS011;51321;50.428;8.378;2023-04-19T12:04:10;2.75;;;1.15;;
64854;SDS011;51321;50.428;8.378;2023-04-19T12:06:55;3.83;;;1.23;;
64854;SDS011;51321;50.428;8.378;2023-04-19T12:09:37;2.10;;;1.00;;
64854;SDS011;51321;50.428;8.378;2023-04-19T12:12:30;1.90;;;1.00;;
64854;SDS011;51321;50.428;8.378;2023-04-19T12:15:11;4.03;;;1.15;;
64854;SDS011;51321;50.428;8.378;2023-04-19T12:17:56;2.70;;;1.20;;
64854;SDS011;51321;50.428;8.378;2023-04-19T12:20:42;5.75;;;1.10;;
64854;SDS011;51321;50.428;8.378;2023-04-19T12:23:24;1.45;;;0.82;;
64854;SDS011;51321;50.428;8.378;2023-04-19T12:26:05;1.38;;;0.85;;
64854;SDS011;51321;50.428;8.378;2023-04-19T12:28:46;2.83;;;0.95;;
64854;SDS011;51321;50.428;8.378;2023-04-19T12:31:27;4.72;;;1.20;;
64854;SDS011;51321;50.428;8.378;2023-04-19T12:34:11;3.90;;;1.30;;
64854;SDS011;51321;50.428;8.378;2023-04-19T12:36:52;3.60;;;1.38;;
64854;SDS011;51321;50.428;8.378;2023-04-19T12:39:33;3.15;;;1.10;;
64854;SDS011;51321;50.428;8.378;2023-04-19T12:42:14;2.42;;;1.02;;
64854;SDS011;51321;50.428;8.378;2023-04-19T12:44:55;2.28;;;0.90;;
64854;SDS011;51321;50.428;8.378;2023-04-19T12:47:42;2.42;;;1.70;;
64854;SDS011;51321;50.428;8.378;2023-04-19T12:50:25;3.33;;;1.20;;
64854;SDS011;51321;50.428;8.378;2023-04-19T12:53:08;4.15;;;1.10;;
64854;SDS011;51321;50.428;8.378;2023-04-19T12:55:50;2.78;;;1.23;;
64854;SDS011;51321;50.428;8.378;2023-04-19T12:58:32;3.17;;;1.10;;
64854;SDS011;51321;50.428;8.378;2023-04-19T13:01:13;2.00;;;1.15;;
64854;SDS011;51321;50.428;8.378;2023-04-19T13:03:54;2.03;;;0.90;;
64854;SDS011;51321;50.428;8.378;2023-04-19T13:06:36;1.95;;;1.10;;
64854;SDS011;51321;50.428;8.378;2023-04-19T13:09:18;2.65;;;1.25;;
64854;SDS011;51321;50.428;8.378;2023-04-19T13:11:59;3.85;;;1.63;;
64854;SDS011;51321;50.428;8.378;2023-04-19T13:14:40;2.83;;;1.00;;
64854;SDS011;51321;50.428;8.378;2023-04-19T13:17:24;2.38;;;1.08;;
64854;SDS011;51321;50.428;8.378;2023-04-19T13:20:05;3.08;;;1.27;;
64854;SDS011;51321;50.428;8.378;2023-04-19T13:22:48;2.20;;;1.33;;
64854;SDS011;51321;50.428;8.378;2023-04-19T13:25:29;1.88;;;1.48;;
64854;SDS011;51321;50.428;8.378;2023-04-19T13:28:10;2.78;;;1.17;;
64854;SDS011;51321;50.428;8.378;2023-04-19T13:30:53;2.53;;;1.30;;
64854;SDS011;51321;50.428;8.378;2023-04-19T13:33:36;1.55;;;0.90;;
64854;SDS011;51321;50.428;8.378;2023-04-19T13:36:17;1.35;;;1.02;;
64854;SDS011;51321;50.428;8.378;2023-04-19T13:39:00;4.28;;;0.90;;
64854;SDS011;51321;50.428;8.378;2023-04-19T13:41:43;2.45;;;0.95;;
64854;SDS011;51321;50.428;8.378;2023-04-19T13:44:24;1.60;;;0.80;;
64854;SDS011;51321;50.428;8.378;2023-04-19T13:47:05;3.55;;;1.08;;
64854;SDS011;51321;50.428;8.378;2023-04-19T13:49:48;2.72;;;1.10;;
64854;SDS011;51321;50.428;8.378;2023-04-19T13:52:30;2.20;;;1.02;;
64854;SDS011;51321;50.428;8.378;2023-04-19T13:55:16;3.05;;;0.98;;
64854;SDS011;51321;50.428;8.378;2023-04-19T14:00:38;5.13;;;0.85;;
64854;SDS011;51321;50.428;8.378;2023-04-19T14:03:22;2.15;;;1.20;;
64854;SDS011;51321;50.428;8.378;2023-04-19T14:06:05;2.10;;;0.98;;
64854;SDS011;51321;50.428;8.378;2023-04-19T14:08:50;2.78;;;1.00;;
64854;SDS011;51321;50.428;8.378;2023-04-19T14:11:32;2.50;;;1.15;;
64854;SDS011;51321;50.428;8.378;2023-04-19T14:14:13;2.35;;;1.38;;
64854;SDS011;51321;50.428;8.378;2023-04-19T14:16:54;3.03;;;1.20;;
64854;SDS011;51321;50.428;8.378;2023-04-19T14:19:35;3.25;;;1.25;;
64854;SDS011;51321;50.428;8.378;2023-04-19T14:22:16;2.67;;;1.20;;
64854;SDS011;51321;50.428;8.378;2023-04-19T14:24:57;2.53;;;1.17;;
64854;SDS011;51321;50.428;8.378;2023-04-19T14:27:42;1.88;;;1.63;;
64854;SDS011;51321;50.428;8.378;2023-04-19T14:30:23;2.55;;;1.17;;
64854;SDS011;51321;50.428;8.378;2023-04-19T14:33:04;3.45;;;1.33;;
64854;SDS011;51321;50.428;8.378;2023-04-19T14:35:45;2.20;;;1.38;;
64854;SDS011;51321;50.428;8.378;2023-04-19T14:38:26;2.10;;;1.25;;
64854;SDS011;51321;50.428;8.378;2023-04-19T14:41:07;3.58;;;1.35;;
64854;SDS011;51321;50.428;8.378;2023-04-19T14:43:49;3.67;;;1.33;;
64854;SDS011;51321;50.428;8.378;2023-04-19T14:46:30;3.33;;;1.35;;
64854;SDS011;51321;50.428;8.378;2023-04-19T14:49:12;2.22;;;1.40;;
64854;SDS011;51321;50.428;8.378;2023-04-19T14:51:55;3.08;;;1.10;;
64854;SDS011;51321;50.428;8.378;2023-04-19T14:54:36;3.05;;;0.95;;
64854;SDS011;51321;50.428;8.378;2023-04-19T14:57:17;3.90;;;1.52;;
64854;SDS011;51321;50.428;8.378;2023-04-19T14:59:59;3.15;;;1.27;;
64854;SDS011;51321;50.428;8.378;2023-04-19T15:02:43;1.83;;;1.17;;
64854;SDS011;51321;50.428;8.378;2023-04-19T15:05:24;1.70;;;1.23;;
64854;SDS011;51321;50.428;8.378;2023-04-19T15:08:06;1.80;;;1.13;;
64854;SDS011;51321;50.428;8.378;2023-04-19T15:10:47;2.53;;;1.40;;
64854;SDS011;51321;50.428;8.378;2023-04-19T15:13:28;4.00;;;1.20;;
64854;SDS011;51321;50.428;8.378;2023-04-19T15:16:10;3.40;;;1.38;;
64854;SDS011;51321;50.428;8.378;2023-04-19T15:21:32;2.50;;;1.35;;
64854;SDS011;51321;50.428;8.378;2023-04-19T15:24:13;4.05;;;1.52;;
64854;SDS011;51321;50.428;8.378;2023-04-19T15:26:54;5.25;;;1.67;;
64854;SDS011;51321;50.428;8.378;2023-04-19T15:29:36;2.00;;;1.23;;
64854;SDS011;51321;50.428;8.378;2023-04-19T15:32:19;1.98;;;1.20;;
64854;SDS011;51321;50.428;8.378;2023-04-19T15:35:00;4.97;;;1.63;;
64854;SDS011;51321;50.428;8.378;2023-04-19T15:37:41;2.58;;;1.30;;
64854;SDS011;51321;50.428;8.378;2023-04-19T15:40:24;3.08;;;1.60;;
64854;SDS011;51321;50.428;8.378;2023-04-19T15:43:06;3.45;;;1.63;;
64854;SDS011;51321;50.428;8.378;2023-04-19T15:45:47;5.68;;;1.63;;
64854;SDS011;51321;50.428;8.378;2023-04-19T15:48:29;2.35;;;1.13;;
64854;SDS011;51321;50.428;8.378;2023-04-19T15:51:11;2.83;;;1.30;;
64854;SDS011;51321;50.428;8.378;2023-04-19T15:53:53;4.25;;;1.60;;
64854;SDS011;51321;50.428;8.378;2023-04-19T15:56:33;3.50;;;1.10;;
64854;SDS011;51321;50.428;8.378;2023-04-19T15:59:14;4.88;;;1.85;;
64854;SDS011;51321;50.428;8.378;2023-04-19T16:01:56;3.58;;;1.63;;
64854;SDS011;51321;50.428;8.378;2023-04-19T16:04:37;2.42;;;1.30;;
64854;SDS011;51321;50.428;8.378;2023-04-19T16:07:18;4.07;;;1.27;;
64854;SDS011;51321;50.428;8.378;2023-04-19T16:09:59;3.65;;;1.73;;
64854;SDS011;51321;50.428;8.378;2023-04-19T16:12:44;3.95;;;1.50;;
64854;SDS011;51321;50.428;8.378;2023-04-19T16:15:25;2.35;;;1.25;;
64854;SDS011;51321;50.428;8.378;2023-04-19T16:18:06;5.60;;;1.27;;
64854;SDS011;51321;50.428;8.378;2023-04-19T16:20:53;3.92;;;1.50;;
64854;SDS011;51321;50.428;8.378;2023-04-19T16:23:34;2.28;;;1.33;;
64854;SDS011;51321;50.428;8.378;2023-04-19T16:26:14;2.35;;;1.30;;
64854;SDS011;51321;50.428;8.378;2023-04-19T16:28:55;2.72;;;1.17;;
64854;SDS011;51321;50.428;8.378;2023-04-19T16:31:38;2.90;;;1.38;;
64854;SDS011;51321;50.428;8.378;2023-04-19T16:34:19;1.95;;;1.25;;
64854;SDS011;51321;50.428;8.378;2023-04-19T16:37:04;3.17;;;1.20;;
64854;SDS011;51321;50.428;8.378;2023-04-19T16:39:45;2.45;;;1.15;;